メインページ
METAR-TAF:

METAR-TAF

空港 :

イーラーム, イラン

緯度: 33-35-09N, 経度: 046-24-20E, 海抜: 1334m

現時点の気象観測

当レポートは1時間6分前の12:00(UTC)に作成
南東の風 4kt
気温 16°C
湿度 23%
気圧 1023 hPa
視程10km以上
1,500メートル以下は雲なし、積乱雲なし

METAR: OICI 121200Z 14004KT CAVOK 16/M05 Q1023 A3022

時間: 16:36 (13:06 UTC)

予報

当レポートは2時間6分前の11:00(UTC)に作成
予報は12日の 12時(UTC)から 13日の 18時(UTC)まで有効
南東の風 8kt
視程: 8000m

TAF: OICI 121100Z 1212/1318 13004MPS 8000 NSC

4,000以上の空港の気象観測と天気予報(METAR報とTAF報)

利用可能な観測所は地図上に黄色い丸と赤い丸で示す。

丸の上にカーソルを重ねると観測所名を参照できる。

次にクリックすると気象観測と天気予報を参照できる。

マップの切り替え:黒色「×」印の緑ボタンをクリックして拡大、「-」印の緑ボタンをクリックして縮小、緑色の三角印をクリックして隣りの地図に切り替え


METAR-TAF: